sensor_id;sensor_type;location;lat;lon;timestamp;pressure;altitude;pressure_sealevel;temperature;humidity
75551;BME280;65071;53.082;18.218;2023-04-07T00:01:52;101599.26;;;3.46;78.04
75551;BME280;65071;53.082;18.218;2023-04-07T00:04:19;101596.10;;;3.48;77.87
75551;BME280;65071;53.082;18.218;2023-04-07T00:06:45;101594.35;;;3.51;78.09
75551;BME280;65071;53.082;18.218;2023-04-07T00:09:11;101591.35;;;3.53;77.54
75551;BME280;65071;53.082;18.218;2023-04-07T00:11:37;101588.32;;;3.56;78.40
75551;BME280;65071;53.082;18.218;2023-04-07T00:14:02;101584.44;;;3.59;77.59
75551;BME280;65071;53.082;18.218;2023-04-07T00:16:28;101583.81;;;3.60;79.04
75551;BME280;65071;53.082;18.218;2023-04-07T00:18:54;101586.91;;;3.62;78.50
75551;BME280;65071;53.082;18.218;2023-04-07T00:21:20;101581.65;;;3.67;78.25
75551;BME280;65071;53.082;18.218;2023-04-07T00:23:46;101575.57;;;3.71;78.10
75551;BME280;65071;53.082;18.218;2023-04-07T00:26:12;101575.29;;;3.73;77.75
75551;BME280;65071;53.082;18.218;2023-04-07T00:28:39;101571.73;;;3.72;78.47
75551;BME280;65071;53.082;18.218;2023-04-07T00:31:05;101568.79;;;3.71;78.49
75551;BME280;65071;53.082;18.218;2023-04-07T00:33:31;101570.20;;;3.68;79.34
75551;BME280;65071;53.082;18.218;2023-04-07T00:35:57;101567.59;;;3.67;78.58
75551;BME280;65071;53.082;18.218;2023-04-07T00:38:23;101570.84;;;3.66;78.76
75551;BME280;65071;53.082;18.218;2023-04-07T00:40:49;101568.30;;;3.64;80.93
75551;BME280;65071;53.082;18.218;2023-04-07T00:43:15;101570.54;;;3.62;80.03
75551;BME280;65071;53.082;18.218;2023-04-07T00:45:41;101571.94;;;3.63;79.65
75551;BME280;65071;53.082;18.218;2023-04-07T00:48:08;101571.02;;;3.63;80.40
75551;BME280;65071;53.082;18.218;2023-04-07T00:50:35;101564.45;;;3.66;79.33
75551;BME280;65071;53.082;18.218;2023-04-07T00:53:01;101562.48;;;3.70;78.47
75551;BME280;65071;53.082;18.218;2023-04-07T00:55:27;101560.39;;;3.72;80.34
75551;BME280;65071;53.082;18.218;2023-04-07T00:57:53;101558.61;;;3.72;79.18
75551;BME280;65071;53.082;18.218;2023-04-07T01:00:19;101554.52;;;3.72;78.98
75551;BME280;65071;53.082;18.218;2023-04-07T01:03:07;101551.80;;;3.72;78.92
75551;BME280;65071;53.082;18.218;2023-04-07T01:05:40;101550.29;;;3.74;78.48
75551;BME280;65071;53.082;18.218;2023-04-07T01:08:20;101548.86;;;3.74;78.91
75551;BME280;65071;53.082;18.218;2023-04-07T01:11:04;101548.45;;;3.75;79.72
75551;BME280;65071;53.082;18.218;2023-04-07T01:13:37;101545.45;;;3.75;80.69
75551;BME280;65071;53.082;18.218;2023-04-07T01:16:15;101542.09;;;3.74;79.68
75551;BME280;65071;53.082;18.218;2023-04-07T01:18:50;101539.94;;;3.75;79.22
75551;BME280;65071;53.082;18.218;2023-04-07T01:21:17;101538.17;;;3.77;80.39
75551;BME280;65071;53.082;18.218;2023-04-07T01:24:22;101530.33;;;3.80;79.79
75551;BME280;65071;53.082;18.218;2023-04-07T01:26:56;101529.88;;;3.79;80.77
75551;BME280;65071;53.082;18.218;2023-04-07T01:31:53;101526.25;;;3.80;80.63
75551;BME280;65071;53.082;18.218;2023-04-07T01:34:21;101521.17;;;3.79;81.32
75551;BME280;65071;53.082;18.218;2023-04-07T01:36:49;101520.78;;;3.80;80.34
75551;BME280;65071;53.082;18.218;2023-04-07T01:39:16;101516.77;;;3.81;79.43
75551;BME280;65071;53.082;18.218;2023-04-07T01:41:43;101517.64;;;3.84;81.02
75551;BME280;65071;53.082;18.218;2023-04-07T01:44:10;101514.37;;;3.86;80.69
75551;BME280;65071;53.082;18.218;2023-04-07T01:46:36;101515.25;;;3.89;80.33
75551;BME280;65071;53.082;18.218;2023-04-07T01:49:03;101513.75;;;3.90;80.46
75551;BME280;65071;53.082;18.218;2023-04-07T01:51:30;101512.77;;;3.92;80.56
75551;BME280;65071;53.082;18.218;2023-04-07T01:53:58;101514.04;;;3.91;81.02
75551;BME280;65071;53.082;18.218;2023-04-07T01:56:25;101511.98;;;3.92;79.99
75551;BME280;65071;53.082;18.218;2023-04-07T01:58:52;101513.13;;;3.94;79.64
75551;BME280;65071;53.082;18.218;2023-04-07T02:01:20;101514.38;;;3.97;80.30
75551;BME280;65071;53.082;18.218;2023-04-07T02:04:34;101510.84;;;3.99;80.78
75551;BME280;65071;53.082;18.218;2023-04-07T02:07:08;101507.89;;;4.01;80.22
75551;BME280;65071;53.082;18.218;2023-04-07T02:09:39;101507.23;;;4.03;79.26
75551;BME280;65071;53.082;18.218;2023-04-07T02:12:08;101508.31;;;4.05;80.57
75551;BME280;65071;53.082;18.218;2023-04-07T02:14:39;101507.34;;;4.07;79.63
75551;BME280;65071;53.082;18.218;2023-04-07T02:17:07;101508.13;;;4.09;79.31
75551;BME280;65071;53.082;18.218;2023-04-07T02:19:33;101502.42;;;4.09;79.60
75551;BME280;65071;53.082;18.218;2023-04-07T02:22:04;101507.31;;;4.10;79.72
75551;BME280;65071;53.082;18.218;2023-04-07T02:24:30;101501.86;;;4.12;79.37
75551;BME280;65071;53.082;18.218;2023-04-07T02:26:57;101501.76;;;4.14;79.86
75551;BME280;65071;53.082;18.218;2023-04-07T02:29:25;101500.34;;;4.14;80.58
75551;BME280;65071;53.082;18.218;2023-04-07T02:31:51;101497.66;;;4.14;79.85
75551;BME280;65071;53.082;18.218;2023-04-07T02:34:17;101491.57;;;4.15;79.99
75551;BME280;65071;53.082;18.218;2023-04-07T02:36:43;101489.10;;;4.14;80.18
75551;BME280;65071;53.082;18.218;2023-04-07T02:39:09;101488.86;;;4.15;79.72
75551;BME280;65071;53.082;18.218;2023-04-07T02:41:35;101487.39;;;4.16;79.82
75551;BME280;65071;53.082;18.218;2023-04-07T02:44:01;101485.20;;;4.17;80.89
75551;BME280;65071;53.082;18.218;2023-04-07T02:46:27;101481.05;;;4.18;80.37
75551;BME280;65071;53.082;18.218;2023-04-07T02:48:53;101482.27;;;4.21;79.62
75551;BME280;65071;53.082;18.218;2023-04-07T02:51:19;101478.73;;;4.23;80.43
75551;BME280;65071;53.082;18.218;2023-04-07T02:53:45;101476.21;;;4.27;80.03
75551;BME280;65071;53.082;18.218;2023-04-07T02:56:11;101475.17;;;4.29;80.32
75551;BME280;65071;53.082;18.218;2023-04-07T02:58:37;101477.84;;;4.29;80.18
75551;BME280;65071;53.082;18.218;2023-04-07T03:01:03;101474.56;;;4.30;79.48
75551;BME280;65071;53.082;18.218;2023-04-07T03:03:31;101474.41;;;4.32;79.54
75551;BME280;65071;53.082;18.218;2023-04-07T03:06:04;101471.44;;;4.34;79.73
75551;BME280;65071;53.082;18.218;2023-04-07T03:08:32;101469.43;;;4.35;79.86
75551;BME280;65071;53.082;18.218;2023-04-07T03:10:58;101466.67;;;4.37;80.55
75551;BME280;65071;53.082;18.218;2023-04-07T03:13:27;101461.98;;;4.37;81.45
75551;BME280;65071;53.082;18.218;2023-04-07T03:15:54;101465.15;;;4.38;80.64
75551;BME280;65071;53.082;18.218;2023-04-07T03:18:20;101462.48;;;4.38;80.64
75551;BME280;65071;53.082;18.218;2023-04-07T03:20:49;101464.45;;;4.38;80.92
75551;BME280;65071;53.082;18.218;2023-04-07T03:23:17;101459.82;;;4.38;80.98
75551;BME280;65071;53.082;18.218;2023-04-07T03:25:43;101458.80;;;4.40;80.44
75551;BME280;65071;53.082;18.218;2023-04-07T03:28:10;101462.32;;;4.41;81.91
75551;BME280;65071;53.082;18.218;2023-04-07T03:30:36;101455.20;;;4.41;81.96
75551;BME280;65071;53.082;18.218;2023-04-07T03:33:03;101460.12;;;4.42;81.76
75551;BME280;65071;53.082;18.218;2023-04-07T03:35:29;101460.48;;;4.42;82.58
75551;BME280;65071;53.082;18.218;2023-04-07T03:37:55;101457.55;;;4.43;81.15
75551;BME280;65071;53.082;18.218;2023-04-07T03:40:21;101463.89;;;4.44;81.43
75551;BME280;65071;53.082;18.218;2023-04-07T03:42:47;101460.14;;;4.48;81.28
75551;BME280;65071;53.082;18.218;2023-04-07T03:45:13;101465.64;;;4.50;81.24
75551;BME280;65071;53.082;18.218;2023-04-07T03:47:42;101464.48;;;4.54;80.91
75551;BME280;65071;53.082;18.218;2023-04-07T03:50:09;101464.19;;;4.56;80.97
75551;BME280;65071;53.082;18.218;2023-04-07T03:52:40;101465.34;;;4.58;81.30
75551;BME280;65071;53.082;18.218;2023-04-07T03:55:12;101461.39;;;4.58;80.83
75551;BME280;65071;53.082;18.218;2023-04-07T03:57:39;101460.45;;;4.59;80.69
75551;BME280;65071;53.082;18.218;2023-04-07T04:00:06;101462.02;;;4.62;80.99
75551;BME280;65071;53.082;18.218;2023-04-07T04:02:42;101466.92;;;4.64;81.53
75551;BME280;65071;53.082;18.218;2023-04-07T04:05:08;101462.86;;;4.60;83.67
75551;BME280;65071;53.082;18.218;2023-04-07T04:07:34;101460.89;;;4.58;83.06
75551;BME280;65071;53.082;18.218;2023-04-07T04:10:04;101458.85;;;4.59;82.55
75551;BME280;65071;53.082;18.218;2023-04-07T04:12:32;101455.12;;;4.59;83.70
75551;BME280;65071;53.082;18.218;2023-04-07T04:15:03;101455.28;;;4.59;83.16
75551;BME280;65071;53.082;18.218;2023-04-07T04:17:30;101452.33;;;4.61;82.26
75551;BME280;65071;53.082;18.218;2023-04-07T04:19:56;101460.55;;;4.60;83.17
75551;BME280;65071;53.082;18.218;2023-04-07T04:22:51;101457.07;;;4.59;82.96
75551;BME280;65071;53.082;18.218;2023-04-07T04:25:17;101458.08;;;4.57;83.50
75551;BME280;65071;53.082;18.218;2023-04-07T04:27:46;101457.57;;;4.57;82.77
75551;BME280;65071;53.082;18.218;2023-04-07T04:30:17;101457.21;;;4.60;82.05
75551;BME280;65071;53.082;18.218;2023-04-07T04:32:51;101456.56;;;4.61;82.78
75551;BME280;65071;53.082;18.218;2023-04-07T04:35:21;101456.06;;;4.63;82.33
75551;BME280;65071;53.082;18.218;2023-04-07T04:37:57;101460.02;;;4.66;82.74
75551;BME280;65071;53.082;18.218;2023-04-07T04:40:23;101461.67;;;4.68;83.31
75551;BME280;65071;53.082;18.218;2023-04-07T04:42:49;101462.82;;;4.69;83.44
75551;BME280;65071;53.082;18.218;2023-04-07T04:45:15;101459.85;;;4.71;82.31
75551;BME280;65071;53.082;18.218;2023-04-07T04:47:44;101463.61;;;4.74;82.55
75551;BME280;65071;53.082;18.218;2023-04-07T04:50:10;101462.40;;;4.76;82.17
75551;BME280;65071;53.082;18.218;2023-04-07T04:52:37;101460.45;;;4.78;82.47
75551;BME280;65071;53.082;18.218;2023-04-07T04:55:06;101463.55;;;4.80;82.54
75551;BME280;65071;53.082;18.218;2023-04-07T04:57:32;101463.94;;;4.82;82.50
75551;BME280;65071;53.082;18.218;2023-04-07T05:00:02;101462.87;;;4.85;82.20
75551;BME280;65071;53.082;18.218;2023-04-07T05:02:28;101458.27;;;4.84;82.81
75551;BME280;65071;53.082;18.218;2023-04-07T05:04:55;101458.96;;;4.85;83.01
75551;BME280;65071;53.082;18.218;2023-04-07T05:07:24;101460.74;;;4.87;82.27
75551;BME280;65071;53.082;18.218;2023-04-07T05:09:50;101461.69;;;4.89;83.03
75551;BME280;65071;53.082;18.218;2023-04-07T05:12:17;101464.67;;;4.93;82.50
75551;BME280;65071;53.082;18.218;2023-04-07T05:14:47;101465.20;;;4.95;82.74
75551;BME280;65071;53.082;18.218;2023-04-07T05:17:12;101464.76;;;4.97;82.44
75551;BME280;65071;53.082;18.218;2023-04-07T05:19:39;101462.67;;;4.98;82.41
75551;BME280;65071;53.082;18.218;2023-04-07T05:22:11;101463.56;;;4.99;83.20
75551;BME280;65071;53.082;18.218;2023-04-07T05:24:42;101468.52;;;5.02;82.34
75551;BME280;65071;53.082;18.218;2023-04-07T05:27:08;101471.97;;;5.01;83.81
75551;BME280;65071;53.082;18.218;2023-04-07T05:29:34;101467.17;;;5.00;83.22
75551;BME280;65071;53.082;18.218;2023-04-07T05:32:01;101470.19;;;5.01;84.23
75551;BME280;65071;53.082;18.218;2023-04-07T05:34:29;101469.23;;;5.02;83.69
75551;BME280;65071;53.082;18.218;2023-04-07T05:36:55;101467.67;;;5.04;83.41
75551;BME280;65071;53.082;18.218;2023-04-07T05:39:21;101467.55;;;5.06;83.45
75551;BME280;65071;53.082;18.218;2023-04-07T05:41:47;101465.69;;;5.06;84.27
75551;BME280;65071;53.082;18.218;2023-04-07T05:44:13;101466.13;;;5.08;83.95
75551;BME280;65071;53.082;18.218;2023-04-07T05:46:40;101466.71;;;5.10;83.56
75551;BME280;65071;53.082;18.218;2023-04-07T05:49:07;101459.33;;;5.11;83.70
75551;BME280;65071;53.082;18.218;2023-04-07T05:51:33;101457.03;;;5.17;83.67
75551;BME280;65071;53.082;18.218;2023-04-07T05:54:01;101459.13;;;5.19;83.42
75551;BME280;65071;53.082;18.218;2023-04-07T05:56:28;101458.10;;;5.24;83.05
75551;BME280;65071;53.082;18.218;2023-04-07T05:58:54;101457.73;;;5.27;83.07
75551;BME280;65071;53.082;18.218;2023-04-07T06:01:20;101463.55;;;5.31;83.17
75551;BME280;65071;53.082;18.218;2023-04-07T06:03:46;101462.56;;;5.35;82.61
75551;BME280;65071;53.082;18.218;2023-04-07T06:06:15;101462.38;;;5.37;83.28
75551;BME280;65071;53.082;18.218;2023-04-07T06:08:41;101465.44;;;5.37;83.61
75551;BME280;65071;53.082;18.218;2023-04-07T06:11:07;101465.36;;;5.38;83.16
75551;BME280;65071;53.082;18.218;2023-04-07T06:13:33;101463.77;;;5.41;83.67
75551;BME280;65071;53.082;18.218;2023-04-07T06:15:59;101465.36;;;5.43;83.41
75551;BME280;65071;53.082;18.218;2023-04-07T06:18:25;101460.83;;;5.45;83.86
75551;BME280;65071;53.082;18.218;2023-04-07T06:20:51;101466.66;;;5.51;83.06
75551;BME280;65071;53.082;18.218;2023-04-07T06:23:17;101468.17;;;5.55;82.89
75551;BME280;65071;53.082;18.218;2023-04-07T06:25:43;101472.26;;;5.57;83.40
75551;BME280;65071;53.082;18.218;2023-04-07T06:28:10;101472.80;;;5.60;83.17
75551;BME280;65071;53.082;18.218;2023-04-07T06:30:35;101474.52;;;5.61;83.26
75551;BME280;65071;53.082;18.218;2023-04-07T06:33:02;101472.30;;;5.59;84.01
75551;BME280;65071;53.082;18.218;2023-04-07T06:35:28;101473.05;;;5.62;83.52
75551;BME280;65071;53.082;18.218;2023-04-07T06:37:54;101467.91;;;5.61;84.24
75551;BME280;65071;53.082;18.218;2023-04-07T06:40:20;101467.23;;;5.65;83.17
75551;BME280;65071;53.082;18.218;2023-04-07T06:42:46;101465.41;;;5.68;83.23
75551;BME280;65071;53.082;18.218;2023-04-07T06:45:24;101464.23;;;5.73;83.24
75551;BME280;65071;53.082;18.218;2023-04-07T06:47:50;101467.54;;;5.74;83.22
75551;BME280;65071;53.082;18.218;2023-04-07T06:50:16;101468.56;;;5.72;83.75
75551;BME280;65071;53.082;18.218;2023-04-07T06:52:45;101462.89;;;5.71;84.21
75551;BME280;65071;53.082;18.218;2023-04-07T06:55:11;101464.93;;;5.73;84.19
75551;BME280;65071;53.082;18.218;2023-04-07T06:57:36;101465.13;;;5.78;83.20
75551;BME280;65071;53.082;18.218;2023-04-07T07:00:03;101468.23;;;5.82;83.19
75551;BME280;65071;53.082;18.218;2023-04-07T07:02:28;101467.87;;;5.85;83.74
75551;BME280;65071;53.082;18.218;2023-04-07T07:04:55;101472.10;;;5.92;83.13
75551;BME280;65071;53.082;18.218;2023-04-07T07:07:21;101469.73;;;5.97;83.22
75551;BME280;65071;53.082;18.218;2023-04-07T07:09:48;101471.54;;;5.97;84.02
75551;BME280;65071;53.082;18.218;2023-04-07T07:12:13;101469.23;;;5.99;83.73
75551;BME280;65071;53.082;18.218;2023-04-07T07:14:40;101475.14;;;6.01;83.34
75551;BME280;65071;53.082;18.218;2023-04-07T07:17:05;101476.99;;;5.98;84.26
75551;BME280;65071;53.082;18.218;2023-04-07T07:19:31;101473.87;;;5.96;84.51
75551;BME280;65071;53.082;18.218;2023-04-07T07:21:57;101473.20;;;5.98;84.64
75551;BME280;65071;53.082;18.218;2023-04-07T07:24:23;101474.41;;;5.97;84.67
75551;BME280;65071;53.082;18.218;2023-04-07T07:26:49;101475.38;;;5.98;84.27
75551;BME280;65071;53.082;18.218;2023-04-07T07:29:15;101474.52;;;6.00;84.08
75551;BME280;65071;53.082;18.218;2023-04-07T07:31:41;101473.00;;;6.04;84.17
75551;BME280;65071;53.082;18.218;2023-04-07T07:34:07;101471.80;;;6.11;84.23
75551;BME280;65071;53.082;18.218;2023-04-07T07:36:32;101481.30;;;6.13;84.25
75551;BME280;65071;53.082;18.218;2023-04-07T07:38:58;101479.77;;;6.12;83.83
75551;BME280;65071;53.082;18.218;2023-04-07T07:41:24;101477.16;;;6.13;84.21
75551;BME280;65071;53.082;18.218;2023-04-07T07:43:51;101471.94;;;6.16;84.16
75551;BME280;65071;53.082;18.218;2023-04-07T07:46:16;101475.03;;;6.21;83.83
75551;BME280;65071;53.082;18.218;2023-04-07T07:48:42;101474.48;;;6.23;83.83
75551;BME280;65071;53.082;18.218;2023-04-07T07:51:08;101470.10;;;6.27;83.98
75551;BME280;65071;53.082;18.218;2023-04-07T07:53:34;101468.98;;;6.35;83.33
75551;BME280;65071;53.082;18.218;2023-04-07T07:56:00;101468.68;;;6.42;83.55
75551;BME280;65071;53.082;18.218;2023-04-07T07:58:26;101467.04;;;6.50;83.80
75551;BME280;65071;53.082;18.218;2023-04-07T08:00:52;101467.34;;;6.55;83.87
75551;BME280;65071;53.082;18.218;2023-04-07T08:03:18;101471.93;;;6.64;83.43
75551;BME280;65071;53.082;18.218;2023-04-07T08:05:47;101474.47;;;6.71;83.19
75551;BME280;65071;53.082;18.218;2023-04-07T08:08:13;101479.05;;;6.76;83.02
75551;BME280;65071;53.082;18.218;2023-04-07T08:10:39;101480.17;;;6.80;82.83
75551;BME280;65071;53.082;18.218;2023-04-07T08:13:05;101483.10;;;6.87;82.76
75551;BME280;65071;53.082;18.218;2023-04-07T08:15:31;101484.41;;;6.91;82.70
75551;BME280;65071;53.082;18.218;2023-04-07T08:17:57;101483.16;;;6.95;82.28
75551;BME280;65071;53.082;18.218;2023-04-07T08:20:25;101481.28;;;7.04;82.16
75551;BME280;65071;53.082;18.218;2023-04-07T08:22:51;101478.30;;;7.10;82.37
75551;BME280;65071;53.082;18.218;2023-04-07T08:25:17;101479.61;;;7.19;82.11
75551;BME280;65071;53.082;18.218;2023-04-07T08:27:44;101478.24;;;7.30;81.89
75551;BME280;65071;53.082;18.218;2023-04-07T08:30:10;101477.47;;;7.43;81.78
75551;BME280;65071;53.082;18.218;2023-04-07T08:32:37;101476.31;;;7.51;81.35
75551;BME280;65071;53.082;18.218;2023-04-07T08:35:04;101472.64;;;7.57;80.89
75551;BME280;65071;53.082;18.218;2023-04-07T08:37:30;101470.95;;;7.67;81.08
75551;BME280;65071;53.082;18.218;2023-04-07T08:39:56;101472.98;;;7.73;81.06
75551;BME280;65071;53.082;18.218;2023-04-07T08:42:28;101474.09;;;7.79;80.75
75551;BME280;65071;53.082;18.218;2023-04-07T08:45:01;101471.06;;;7.88;80.65
75551;BME280;65071;53.082;18.218;2023-04-07T08:47:30;101478.22;;;8.00;80.67
75551;BME280;65071;53.082;18.218;2023-04-07T08:50:03;101478.64;;;8.04;80.06
75551;BME280;65071;53.082;18.218;2023-04-07T08:52:39;101479.94;;;8.01;80.19
75551;BME280;65071;53.082;18.218;2023-04-07T08:55:06;101483.23;;;7.98;80.28
75551;BME280;65071;53.082;18.218;2023-04-07T08:57:33;101484.55;;;7.92;79.93
75551;BME280;65071;53.082;18.218;2023-04-07T09:00:01;101483.18;;;7.87;80.37
75551;BME280;65071;53.082;18.218;2023-04-07T09:02:35;101484.55;;;7.81;80.73
75551;BME280;65071;53.082;18.218;2023-04-07T09:05:03;101480.57;;;7.84;80.32
75551;BME280;65071;53.082;18.218;2023-04-07T09:07:31;101478.04;;;7.86;80.35
75551;BME280;65071;53.082;18.218;2023-04-07T09:09:57;101475.77;;;7.95;80.47
75551;BME280;65071;53.082;18.218;2023-04-07T09:12:24;101478.20;;;8.07;80.29
75551;BME280;65071;53.082;18.218;2023-04-07T09:14:51;101476.69;;;8.19;80.47
75551;BME280;65071;53.082;18.218;2023-04-07T09:17:18;101476.68;;;8.29;80.25
75551;BME280;65071;53.082;18.218;2023-04-07T09:19:44;101477.48;;;8.34;80.22
75551;BME280;65071;53.082;18.218;2023-04-07T09:22:10;101475.46;;;8.33;79.20
75551;BME280;65071;53.082;18.218;2023-04-07T09:24:40;101475.48;;;8.42;79.57
75551;BME280;65071;53.082;18.218;2023-04-07T09:27:11;101470.05;;;8.49;79.16
75551;BME280;65071;53.082;18.218;2023-04-07T09:29:40;101464.79;;;8.43;79.25
75551;BME280;65071;53.082;18.218;2023-04-07T09:32:06;101462.66;;;8.45;79.72
75551;BME280;65071;53.082;18.218;2023-04-07T09:34:37;101460.21;;;8.46;79.79
75551;BME280;65071;53.082;18.218;2023-04-07T09:37:05;101449.92;;;8.56;79.52
75551;BME280;65071;53.082;18.218;2023-04-07T09:39:31;101450.48;;;8.67;79.40
75551;BME280;65071;53.082;18.218;2023-04-07T09:41:57;101449.10;;;8.77;79.39
75551;BME280;65071;53.082;18.218;2023-04-07T09:44:24;101446.59;;;8.91;79.43
75551;BME280;65071;53.082;18.218;2023-04-07T09:46:52;101448.48;;;9.06;78.89
75551;BME280;65071;53.082;18.218;2023-04-07T09:49:19;101444.13;;;9.22;78.64
75551;BME280;65071;53.082;18.218;2023-04-07T09:51:58;101450.31;;;9.23;78.13
75551;BME280;65071;53.082;18.218;2023-04-07T09:57:01;101436.44;;;9.40;78.37
75551;BME280;65071;53.082;18.218;2023-04-07T09:59:28;101434.00;;;9.54;77.78
75551;BME280;65071;53.082;18.218;2023-04-07T10:01:54;101431.27;;;9.67;77.90
75551;BME280;65071;53.082;18.218;2023-04-07T10:04:20;101431.77;;;9.78;77.81
75551;BME280;65071;53.082;18.218;2023-04-07T10:06:47;101435.87;;;9.84;77.43
75551;BME280;65071;53.082;18.218;2023-04-07T10:09:13;101438.27;;;9.92;77.22
75551;BME280;65071;53.082;18.218;2023-04-07T10:11:40;101440.35;;;9.93;77.02
75551;BME280;65071;53.082;18.218;2023-04-07T10:14:08;101441.09;;;9.86;76.91
75551;BME280;65071;53.082;18.218;2023-04-07T10:16:36;101436.45;;;9.90;77.06
75551;BME280;65071;53.082;18.218;2023-04-07T10:19:02;101434.59;;;9.91;76.57
75551;BME280;65071;53.082;18.218;2023-04-07T10:21:29;101438.39;;;9.93;76.64
75551;BME280;65071;53.082;18.218;2023-04-07T10:24:09;101440.02;;;9.94;76.67
75551;BME280;65071;53.082;18.218;2023-04-07T10:26:49;101438.53;;;9.91;76.56
75551;BME280;65071;53.082;18.218;2023-04-07T10:29:16;101437.07;;;9.87;76.92
75551;BME280;65071;53.082;18.218;2023-04-07T10:31:43;101436.04;;;9.87;76.94
75551;BME280;65071;53.082;18.218;2023-04-07T10:34:09;101433.08;;;9.88;76.71
75551;BME280;65071;53.082;18.218;2023-04-07T10:37:11;101429.34;;;9.89;76.59
75551;BME280;65071;53.082;18.218;2023-04-07T10:39:38;101429.67;;;9.90;76.63
75551;BME280;65071;53.082;18.218;2023-04-07T10:42:06;101434.40;;;9.89;77.08
75551;BME280;65071;53.082;18.218;2023-04-07T10:47:07;101433.52;;;10.05;76.89
75551;BME280;65071;53.082;18.218;2023-04-07T10:49:34;101430.37;;;10.17;76.62
75551;BME280;65071;53.082;18.218;2023-04-07T10:54:39;101424.98;;;10.39;75.84
75551;BME280;65071;53.082;18.218;2023-04-07T10:57:15;101419.33;;;10.48;75.78
75551;BME280;65071;53.082;18.218;2023-04-07T11:02:34;101416.55;;;10.57;75.67
75551;BME280;65071;53.082;18.218;2023-04-07T11:05:01;101421.41;;;10.63;75.37
75551;BME280;65071;53.082;18.218;2023-04-07T11:07:55;101420.21;;;10.62;74.77
75551;BME280;65071;53.082;18.218;2023-04-07T11:10:22;101419.60;;;10.57;75.13
75551;BME280;65071;53.082;18.218;2023-04-07T11:13:00;101415.88;;;10.66;74.95
75551;BME280;65071;53.082;18.218;2023-04-07T11:15:26;101415.83;;;10.79;74.11
75551;BME280;65071;53.082;18.218;2023-04-07T11:18:10;101415.34;;;10.88;74.38
75551;BME280;65071;53.082;18.218;2023-04-07T11:23:13;101407.55;;;10.71;74.44
75551;BME280;65071;53.082;18.218;2023-04-07T11:25:41;101408.62;;;10.69;74.52
75551;BME280;65071;53.082;18.218;2023-04-07T11:28:09;101416.45;;;10.66;74.46
75551;BME280;65071;53.082;18.218;2023-04-07T11:30:37;101419.45;;;10.53;74.10
75551;BME280;65071;53.082;18.218;2023-04-07T11:33:03;101415.76;;;10.54;74.21
75551;BME280;65071;53.082;18.218;2023-04-07T11:35:30;101420.52;;;10.59;74.04
75551;BME280;65071;53.082;18.218;2023-04-07T11:37:59;101411.75;;;10.56;73.51
75551;BME280;65071;53.082;18.218;2023-04-07T11:40:35;101413.11;;;10.59;74.14
75551;BME280;65071;53.082;18.218;2023-04-07T11:43:23;101416.17;;;10.61;73.79
75551;BME280;65071;53.082;18.218;2023-04-07T11:46:25;101413.68;;;10.63;73.71
75551;BME280;65071;53.082;18.218;2023-04-07T11:48:50;101406.56;;;10.58;74.33
75551;BME280;65071;53.082;18.218;2023-04-07T11:51:18;101402.73;;;10.66;74.07
75551;BME280;65071;53.082;18.218;2023-04-07T11:53:45;101398.28;;;10.74;74.05
75551;BME280;65071;53.082;18.218;2023-04-07T11:56:14;101406.73;;;10.76;74.32
75551;BME280;65071;53.082;18.218;2023-04-07T11:58:51;101401.66;;;10.78;74.00
75551;BME280;65071;53.082;18.218;2023-04-07T12:01:18;101392.95;;;10.91;74.04
75551;BME280;65071;53.082;18.218;2023-04-07T12:04:01;101393.92;;;11.01;73.95
75551;BME280;65071;53.082;18.218;2023-04-07T12:06:29;101386.93;;;11.17;73.91
75551;BME280;65071;53.082;18.218;2023-04-07T12:08:55;101390.83;;;11.36;73.49
75551;BME280;65071;53.082;18.218;2023-04-07T12:11:21;101394.62;;;11.59;72.31
75551;BME280;65071;53.082;18.218;2023-04-07T12:13:47;101393.52;;;11.79;72.13
75551;BME280;65071;53.082;18.218;2023-04-07T12:16:13;101400.60;;;11.95;71.81
75551;BME280;65071;53.082;18.218;2023-04-07T12:18:39;101403.82;;;11.95;71.43
75551;BME280;65071;53.082;18.218;2023-04-07T12:21:04;101406.16;;;11.79;71.27
75551;BME280;65071;53.082;18.218;2023-04-07T12:23:30;101409.67;;;11.64;71.38
75551;BME280;65071;53.082;18.218;2023-04-07T12:25:56;101413.61;;;11.66;71.56
75551;BME280;65071;53.082;18.218;2023-04-07T12:28:22;101409.46;;;11.67;71.77
75551;BME280;65071;53.082;18.218;2023-04-07T12:30:48;101414.84;;;11.71;71.53
75551;BME280;65071;53.082;18.218;2023-04-07T12:33:14;101420.06;;;11.71;71.05
75551;BME280;65071;53.082;18.218;2023-04-07T12:35:40;101417.20;;;11.71;71.14
75551;BME280;65071;53.082;18.218;2023-04-07T12:38:06;101416.49;;;11.76;71.16
75551;BME280;65071;53.082;18.218;2023-04-07T12:40:32;101412.05;;;11.72;71.03
75551;BME280;65071;53.082;18.218;2023-04-07T12:42:59;101414.49;;;11.65;71.50
75551;BME280;65071;53.082;18.218;2023-04-07T12:45:25;101412.39;;;11.64;71.61
75551;BME280;65071;53.082;18.218;2023-04-07T12:47:52;101415.83;;;11.72;71.43
75551;BME280;65071;53.082;18.218;2023-04-07T12:50:17;101415.46;;;11.81;70.85
75551;BME280;65071;53.082;18.218;2023-04-07T12:52:43;101416.98;;;12.01;71.06
75551;BME280;65071;53.082;18.218;2023-04-07T12:55:09;101419.14;;;12.06;70.84
75551;BME280;65071;53.082;18.218;2023-04-07T12:57:35;101414.20;;;12.11;70.29
75551;BME280;65071;53.082;18.218;2023-04-07T13:00:02;101415.76;;;12.30;70.34
75551;BME280;65071;53.082;18.218;2023-04-07T13:02:28;101423.00;;;12.44;69.70
75551;BME280;65071;53.082;18.218;2023-04-07T13:04:55;101422.11;;;12.44;69.70
75551;BME280;65071;53.082;18.218;2023-04-07T13:07:20;101434.56;;;12.28;68.96
75551;BME280;65071;53.082;18.218;2023-04-07T13:09:46;101428.43;;;12.00;69.63